createdAt,value
2024-01-15T00:08:15.793Z,75.07
2024-01-15T00:11:08.387Z,75.34
2024-01-15T00:13:51.764Z,75.36
2024-01-15T00:20:16.541Z,75.28
2024-01-15T00:23:18.654Z,74.87
2024-01-15T00:26:30.483Z,74.61
2024-01-15T00:33:41.248Z,74.74
2024-01-15T00:35:48.444Z,74.82
2024-01-15T00:42:56.440Z,74.97
2024-01-15T00:45:37.795Z,75.01
2024-01-15T00:48:25.668Z,75.02
2024-01-15T00:51:01.059Z,75.03
2024-01-15T00:53:44.657Z,74.53
2024-01-15T00:56:14.280Z,74.49
2024-01-15T01:02:08.401Z,73.79
2024-01-15T01:05:11.903Z,73.83
2024-01-15T01:08:24.527Z,73.90
2024-01-15T01:10:54.397Z,73.86
2024-01-15T01:13:43.196Z,73.87
2024-01-15T01:16:17.395Z,72.91
2024-01-15T01:18:53.038Z,71.90
2024-01-15T01:21:32.063Z,71.60
2024-01-15T01:24:04.643Z,71.00
2024-01-15T01:26:37.917Z,71.05
2024-01-15T01:29:38.238Z,70.29
2024-01-15T01:32:39.631Z,70.23
2024-01-15T01:35:44.723Z,69.77
2024-01-15T01:38:41.511Z,70.40
2024-01-15T01:41:38.464Z,69.67
2024-01-15T01:44:13.612Z,69.59
2024-01-15T01:46:54.962Z,69.79
2024-01-15T01:49:55.417Z,69.53
2024-01-15T01:52:50.608Z,69.03
2024-01-15T01:56:20.190Z,69.59
2024-01-15T02:00:23.845Z,68.71
2024-01-15T02:02:36.239Z,68.65
2024-01-15T02:05:52.722Z,68.56
2024-01-15T02:08:41.868Z,68.48
2024-01-15T02:11:27.267Z,68.03
2024-01-15T02:14:10.852Z,68.18
2024-01-15T02:27:08.625Z,68.78
2024-01-15T02:30:04.809Z,68.54
2024-01-15T02:33:08.166Z,68.48
2024-01-15T02:35:42.420Z,68.49
2024-01-15T02:38:21.377Z,68.65
2024-01-15T02:41:38.776Z,68.42
2024-01-15T02:44:48.762Z,68.59
2024-01-15T02:47:35.211Z,68.98
2024-01-15T02:53:09.489Z,69.26
2024-01-15T02:56:11.902Z,69.68
2024-01-15T02:59:16.499Z,69.59
2024-01-15T03:02:04.238Z,70.59
2024-01-15T03:07:03.926Z,70.18
2024-01-15T03:11:10.121Z,69.90
2024-01-15T03:13:57.265Z,69.73
2024-01-15T03:16:49.932Z,70.03
2024-01-15T03:20:59.229Z,69.62
2024-01-15T03:26:34.032Z,69.17
2024-01-15T03:29:13.152Z,69.89
2024-01-15T03:35:21.146Z,69.07
2024-01-15T03:38:35.227Z,68.67
2024-01-15T03:48:56.919Z,68.45
2024-01-15T03:52:37.969Z,68.94
2024-01-15T03:55:52.982Z,68.83
2024-01-15T03:59:21.955Z,68.68
2024-01-15T04:02:39.529Z,68.67
2024-01-15T04:05:46.613Z,68.79
2024-01-15T04:08:48.026Z,68.27
2024-01-15T04:11:59.378Z,68.01
2024-01-15T04:15:05.908Z,68.38
2024-01-15T04:17:52.604Z,68.03
2024-01-15T04:20:34.025Z,67.78
2024-01-15T04:23:23.306Z,68.40
2024-01-15T04:26:07.349Z,68.33
2024-01-15T04:28:46.762Z,68.05
2024-01-15T04:32:08.885Z,68.28
2024-01-15T04:34:44.663Z,68.16
2024-01-15T04:37:22.433Z,67.63
2024-01-15T04:40:03.368Z,67.97
2024-01-15T04:42:41.909Z,68.51
2024-01-15T04:45:37.624Z,68.30
2024-01-15T04:48:59.371Z,68.39
2024-01-15T04:51:41.905Z,68.39
2024-01-15T04:54:27.726Z,68.11
2024-01-15T04:57:26.029Z,68.14
2024-01-15T05:02:58.873Z,68.28
2024-01-15T05:05:47.026Z,67.97
2024-01-15T05:08:49.145Z,68.18
2024-01-15T05:12:33.250Z,68.53
2024-01-15T05:17:41.455Z,68.37
2024-01-15T05:20:37.968Z,68.31
2024-01-15T05:27:24.229Z,67.78
2024-01-15T05:30:09.662Z,67.47
2024-01-15T05:33:15.138Z,67.82
2024-01-15T05:35:58.305Z,67.59
2024-01-15T05:42:46.802Z,67.71
2024-01-15T05:45:47.464Z,68.04
2024-01-15T05:53:15.242Z,68.08
2024-01-15T05:56:11.192Z,67.97
2024-01-15T05:59:06.194Z,67.73
2024-01-15T06:04:39.742Z,67.95
2024-01-15T06:07:51.934Z,67.62
2024-01-15T06:13:42.092Z,67.88
2024-01-15T06:16:28.297Z,67.63
2024-01-15T06:19:21.009Z,67.49
2024-01-15T06:21:55.481Z,67.26
2024-01-15T06:24:22.948Z,68.27
2024-01-15T06:26:50.310Z,67.81
2024-01-15T06:29:17.606Z,67.60
2024-01-15T06:31:57.536Z,67.27
2024-01-15T06:34:29.341Z,67.25
2024-01-15T06:37:22.812Z,67.00
2024-01-15T06:40:29.459Z,66.94
2024-01-15T06:43:10.736Z,66.25
2024-01-15T06:46:10.675Z,66.90
2024-01-15T06:48:56.896Z,66.64
2024-01-15T06:51:37.617Z,66.36
2024-01-15T06:54:34.622Z,66.65
2024-01-15T06:57:14.531Z,66.71
2024-01-15T07:00:27.059Z,66.36
2024-01-15T07:02:57.756Z,66.17
2024-01-15T07:05:52.226Z,66.49
2024-01-15T07:08:49.065Z,66.48
2024-01-15T07:11:35.344Z,67.04
2024-01-15T07:14:33.462Z,66.93
2024-01-15T07:17:51.406Z,66.75
2024-01-15T07:20:19.267Z,67.12
2024-01-15T07:22:56.858Z,67.04
2024-01-15T07:25:40.257Z,67.01
2024-01-15T07:28:18.905Z,67.09
2024-01-15T07:31:09.299Z,67.84
2024-01-15T07:33:51.588Z,67.83
2024-01-15T07:36:41.394Z,68.45
2024-01-15T07:39:27.018Z,68.87
2024-01-15T07:42:13.537Z,69.05
2024-01-15T07:44:52.532Z,68.77
2024-01-15T07:47:36.664Z,68.61
2024-01-15T07:50:28.240Z,69.05
2024-01-15T07:52:58.174Z,68.62
2024-01-15T07:55:37.404Z,68.70
2024-01-15T07:58:14.795Z,69.27
2024-01-15T08:04:01.602Z,69.25
2024-01-15T08:13:18.513Z,69.05
2024-01-15T08:16:14.935Z,69.74
2024-01-15T08:19:05.958Z,69.27
2024-01-15T08:21:55.924Z,69.31
2024-01-15T08:24:31.132Z,68.97
2024-01-15T08:27:05.866Z,69.25
2024-01-15T08:29:44.500Z,69.34
2024-01-15T08:32:35.774Z,69.54
2024-01-15T08:35:18.331Z,69.32
2024-01-15T08:37:46.266Z,69.07
2024-01-15T08:40:15.982Z,68.97
2024-01-15T08:45:17.261Z,68.67
2024-01-15T08:46:03.606Z,68.53
2024-01-15T08:48:40.831Z,68.21
2024-01-15T08:51:24.343Z,67.51
2024-01-15T08:53:59.095Z,68.23
2024-01-15T08:56:33.791Z,68.30
2024-01-15T08:59:16.587Z,68.43
2024-01-15T09:01:51.464Z,68.53
2024-01-15T09:08:10.354Z,68.85
2024-01-15T09:10:52.937Z,68.74
2024-01-15T09:13:39.838Z,68.28
2024-01-15T09:16:14.198Z,68.41
2024-01-15T09:19:15.674Z,68.35
2024-01-15T09:21:37.704Z,68.61
2024-01-15T09:24:08.618Z,68.24
2024-01-15T09:26:56.520Z,68.18
2024-01-15T09:29:25.600Z,67.79
2024-01-15T09:32:06.660Z,67.74
2024-01-15T09:34:52.360Z,67.82
2024-01-15T09:37:44.688Z,67.34
2024-01-15T09:40:24.727Z,67.51
2024-01-15T09:43:13.152Z,67.13
2024-01-15T09:45:46.895Z,66.31
2024-01-15T09:48:21.279Z,66.49
2024-01-15T09:51:11.239Z,66.58
2024-01-15T09:53:45.202Z,65.81
2024-01-15T09:56:26.209Z,66.00
2024-01-15T09:59:09.957Z,65.58
2024-01-15T10:01:59.914Z,65.60
2024-01-15T10:04:35.875Z,64.88
2024-01-15T10:07:16.567Z,64.61
2024-01-15T10:10:09.302Z,64.69
2024-01-15T10:48:30.298Z,64.65
2024-01-15T10:51:29.198Z,64.95
2024-01-15T10:54:29.840Z,64.11
2024-01-15T10:57:21.236Z,64.41
2024-01-15T11:00:10.875Z,65.11
2024-01-15T11:03:01.862Z,64.79
2024-01-15T11:05:55.831Z,64.18
2024-01-15T11:08:44.199Z,64.43
2024-01-15T11:11:31.973Z,64.15
2024-01-15T11:35:21.797Z,64.26
2024-01-15T11:40:53.207Z,63.14
2024-01-15T11:46:57.320Z,63.69
2024-01-15T11:50:02.071Z,63.67
2024-01-15T11:53:38.740Z,63.05
2024-01-15T12:12:38.023Z,62.64
2024-01-15T12:15:31.221Z,63.38
2024-01-15T12:18:19.878Z,62.74
2024-01-15T12:20:53.374Z,63.22
2024-01-15T12:23:33.154Z,62.84
2024-01-15T12:26:13.884Z,63.10
2024-01-15T12:28:54.914Z,63.54
2024-01-15T12:43:15.284Z,61.72
2024-01-15T12:45:51.093Z,60.78
2024-01-15T12:48:27.906Z,62.15
2024-01-15T12:51:09.925Z,62.30
2024-01-15T12:54:27.531Z,63.04
2024-01-15T12:56:38.731Z,62.96
2024-01-15T12:59:25.841Z,62.25
2024-01-15T13:02:07.722Z,61.18
2024-01-15T13:05:04.477Z,61.17
2024-01-15T13:07:34.478Z,60.21
2024-01-15T13:10:12.071Z,59.75
2024-01-15T13:13:09.583Z,59.65
2024-01-15T13:16:10.244Z,61.00
2024-01-15T13:18:40.705Z,60.46
2024-01-15T13:21:14.654Z,61.31
2024-01-15T13:24:08.165Z,61.11
2024-01-15T13:26:42.693Z,62.11
2024-01-15T13:29:34.439Z,62.09
2024-01-15T13:32:07.644Z,62.78
2024-01-15T13:34:36.456Z,62.48
2024-01-15T13:37:20.622Z,63.08
2024-01-15T13:40:11.450Z,63.06
2024-01-15T13:42:56.796Z,63.09
2024-01-15T13:46:04.821Z,62.82
2024-01-15T13:49:19.068Z,63.11
2024-01-15T13:58:24.592Z,63.84
2024-01-15T14:00:55.151Z,64.03
2024-01-15T14:03:30.835Z,64.49
2024-01-15T14:06:19.062Z,63.97
2024-01-15T14:12:23.090Z,63.95
2024-01-15T14:20:50.188Z,64.12
2024-01-15T14:33:24.174Z,65.77
2024-01-15T14:36:21.120Z,66.46
2024-01-15T14:39:09.538Z,66.47
2024-01-15T14:42:04.708Z,65.84
2024-01-15T14:44:40.033Z,66.02
2024-01-15T14:47:19.369Z,66.69
2024-01-15T14:50:03.892Z,67.26
2024-01-15T14:59:18.999Z,67.28
2024-01-15T15:02:09.463Z,67.20
2024-01-15T15:04:54.485Z,66.25
2024-01-15T15:07:34.506Z,66.91
2024-01-15T15:10:15.943Z,66.14
2024-01-15T15:12:59.005Z,67.15
2024-01-15T15:15:36.836Z,66.85
2024-01-15T15:18:15.710Z,67.62
2024-01-15T15:24:12.220Z,67.88
2024-01-15T15:27:30.727Z,67.59
2024-01-15T15:30:09.078Z,67.79
2024-01-15T15:32:58.967Z,67.29
2024-01-15T15:35:34.978Z,67.35
2024-01-15T15:38:22.494Z,67.68
2024-01-15T15:41:19.557Z,67.98
2024-01-15T15:43:59.411Z,67.79
2024-01-15T15:49:23.143Z,68.06
2024-01-15T15:50:20.090Z,68.13
2024-01-15T15:53:08.348Z,67.88
2024-01-15T15:55:40.673Z,67.83
2024-01-15T15:59:22.144Z,67.97
2024-01-15T16:01:45.684Z,68.66
2024-01-15T16:04:23.389Z,69.22
2024-01-15T16:07:15.300Z,69.60
2024-01-15T16:09:56.376Z,69.68
2024-01-15T16:12:24.888Z,70.35
2024-01-15T16:15:06.849Z,71.85
2024-01-15T16:23:18.529Z,75.29
2024-01-15T16:23:36.565Z,76.72
2024-01-15T16:24:17.670Z,77.45
2024-01-15T16:27:25.668Z,76.93
2024-01-15T16:30:12.352Z,77.69
2024-01-15T16:33:04.183Z,77.52
2024-01-15T16:38:41.953Z,77.13
2024-01-15T16:41:16.973Z,78.06
2024-01-15T16:43:52.987Z,77.20
2024-01-15T16:46:35.379Z,77.41
2024-01-15T16:49:11.685Z,78.12
2024-01-15T16:55:23.158Z,77.89
2024-01-15T16:58:03.898Z,78.25
2024-01-15T17:00:36.324Z,78.49
2024-01-15T17:03:12.122Z,79.01
2024-01-15T17:05:55.780Z,79.35
2024-01-15T17:08:37.873Z,79.06
2024-01-15T17:12:06.839Z,78.51
2024-01-15T17:15:15.389Z,79.27
2024-01-15T17:18:19.262Z,79.98
2024-01-15T17:21:05.279Z,79.77
2024-01-15T17:23:50.858Z,80.21
2024-01-15T17:26:45.601Z,80.29
2024-01-15T17:29:28.296Z,80.80
2024-01-15T17:32:09.107Z,80.60
2024-01-15T17:34:44.808Z,80.47
2024-01-15T17:37:27.516Z,81.15
2024-01-15T17:42:30.582Z,81.16
2024-01-15T17:43:15.384Z,83.32
2024-01-15T17:45:54.500Z,85.01
2024-01-15T17:48:33.322Z,85.67
2024-01-15T17:51:23.377Z,85.98
2024-01-15T17:53:57.587Z,85.78
2024-01-15T17:56:37.631Z,85.91
2024-01-15T17:59:18.580Z,86.01
2024-01-15T18:05:06.457Z,84.08
2024-01-15T18:07:47.645Z,83.91
2024-01-15T18:10:28.497Z,83.95
2024-01-15T18:13:42.611Z,84.71
2024-01-15T18:16:23.354Z,85.04
2024-01-15T18:19:10.671Z,85.21
2024-01-15T18:22:36.467Z,85.39
2024-01-15T18:25:07.658Z,84.90
2024-01-15T18:28:24.831Z,83.74
2024-01-15T18:31:08.727Z,83.36
2024-01-15T18:40:44.271Z,81.89
2024-01-15T18:44:01.174Z,80.78
2024-01-15T18:52:46.106Z,80.84
2024-01-15T18:55:31.888Z,81.28
2024-01-15T19:22:13.397Z,76.51
2024-01-15T19:25:52.154Z,76.32
2024-01-15T19:33:43.936Z,74.04
2024-01-15T19:39:20.729Z,74.09
2024-01-15T20:02:10.577Z,72.37
2024-01-15T20:04:40.925Z,72.04
2024-01-15T20:07:15.495Z,72.10
2024-01-15T20:13:07.904Z,72.21
2024-01-15T20:18:52.372Z,74.31
2024-01-15T20:22:03.276Z,74.47
2024-01-15T20:29:25.023Z,72.88
2024-01-15T20:31:36.048Z,72.64
2024-01-15T20:34:49.100Z,71.83
2024-01-15T20:37:39.439Z,71.88
2024-01-15T20:40:50.284Z,71.39
2024-01-15T20:44:04.690Z,70.04
2024-01-15T20:47:21.503Z,70.58
2024-01-15T20:50:04.097Z,71.80
2024-01-15T20:53:15.194Z,70.12
2024-01-15T20:55:40.085Z,71.44
2024-01-15T20:58:15.444Z,70.99
2024-01-15T21:00:46.124Z,71.37
2024-01-15T21:03:30.564Z,71.43
2024-01-15T21:06:49.299Z,71.64
2024-01-15T21:10:05.098Z,71.38
2024-01-15T21:13:23.680Z,72.19
2024-01-15T21:19:42.553Z,72.18
2024-01-15T21:22:24.767Z,72.30
2024-01-15T21:25:01.091Z,72.80
2024-01-15T21:27:42.535Z,72.82
2024-01-15T21:30:12.201Z,72.76
2024-01-15T21:32:50.945Z,72.66
2024-01-15T21:35:18.954Z,72.76
2024-01-15T21:37:49.645Z,72.24
2024-01-15T21:41:19.408Z,72.32
2024-01-15T21:44:08.364Z,72.30
2024-01-15T21:47:35.450Z,72.67
2024-01-15T21:55:46.623Z,72.55
2024-01-15T21:58:39.983Z,71.98
2024-01-15T22:01:50.049Z,71.84
2024-01-15T22:04:42.933Z,71.91
2024-01-15T22:10:10.723Z,70.91
2024-01-15T22:12:44.962Z,70.37
2024-01-15T22:15:42.549Z,70.29
2024-01-15T22:18:20.847Z,69.32
2024-01-15T22:21:01.043Z,69.66
2024-01-15T22:23:58.057Z,69.69
2024-01-15T22:26:53.257Z,69.39
2024-01-15T22:29:56.150Z,68.68
2024-01-15T22:32:37.656Z,69.61
2024-01-15T22:35:15.742Z,68.50
2024-01-15T22:38:09.124Z,68.21
2024-01-15T22:43:41.389Z,68.06
2024-01-15T22:46:29.832Z,67.87
2024-01-15T22:49:10.304Z,67.47
2024-01-15T22:52:38.438Z,68.06
2024-01-15T22:56:12.375Z,67.66
2024-01-15T23:03:17.056Z,67.78
2024-01-15T23:06:13.671Z,66.92
2024-01-15T23:09:06.779Z,67.29
2024-01-15T23:16:11.057Z,66.78
2024-01-15T23:18:32.229Z,66.23
2024-01-15T23:21:38.846Z,66.29
2024-01-15T23:25:10.844Z,66.63
2024-01-15T23:28:27.550Z,65.74
2024-01-15T23:31:23.440Z,66.04
2024-01-15T23:34:06.209Z,65.54
2024-01-15T23:36:40.472Z,65.63
2024-01-15T23:39:13.758Z,65.59
2024-01-15T23:42:34.746Z,65.47
2024-01-15T23:45:09.886Z,65.63
2024-01-15T23:47:43.992Z,65.58
2024-01-15T23:50:42.395Z,64.43
2024-01-15T23:53:15.729Z,64.81
2024-01-15T23:56:06.427Z,65.38
2024-01-15T23:58:43.461Z,64.89
